Time;durP1;ratioP1;P1;durP2;ratioP2;P2;SDS_P1;SDS_P2;PMS_P1;PMS_P2;Temp;Humidity;BMP_temperature;BMP_pressure;BME280_temperature;BME280_humidity;BME280_pressure;Samples;Min_cycle;Max_cycle;Signal;HPM_P1;HPM_P2
2023/09/12 00:00:53;;;;;;;18.73;12.40;;;15.90;99.90;;;;;;10211806;29;20242;-84
2023/09/12 00:05:59;;;;;;;19.10;13.15;;;15.90;99.90;;;;;;10211732;29;20298;-84
2023/09/12 00:11:10;;;;;;;16.63;11.88;;;15.60;99.90;;;;;;10210609;29;20262;-84
2023/09/12 00:16:12;;;;;;;13.20;11.80;;;15.80;99.90;;;;;;10210942;29;20254;-84
2023/09/12 00:21:15;;;;;;;21.73;11.70;;;15.70;99.90;;;;;;10210688;29;20251;-84
2023/09/12 00:26:17;;;;;;;12.15;10.10;;;15.80;99.90;;;;;;10210411;29;20246;-84
2023/09/12 00:31:20;;;;;;;20.58;13.35;;;15.90;99.90;;;;;;10192543;29;20318;-84
2023/09/12 00:36:23;;;;;;;14.90;12.32;;;15.60;99.90;;;;;;10191868;29;20685;-84
2023/09/12 00:41:25;;;;;;;15.63;11.63;;;15.70;99.90;;;;;;10208673;29;20270;-84
2023/09/12 00:46:29;;;;;;;13.88;11.30;;;15.80;99.90;;;;;;10192431;29;20254;-84
2023/09/12 00:51:33;;;;;;;13.82;10.80;;;15.80;99.90;;;;;;10192751;29;20274;-84
2023/09/12 00:56:37;;;;;;;16.27;10.57;;;15.80;99.90;;;;;;10208720;29;20329;-84
2023/09/12 01:01:39;;;;;;;16.33;12.13;;;15.90;99.90;;;;;;10191737;29;20710;-84
2023/09/12 01:06:43;;;;;;;14.32;11.38;;;15.80;99.90;;;;;;10191678;29;20254;-84
2023/09/12 01:11:46;;;;;;;16.52;12.60;;;15.70;99.90;;;;;;10208648;29;20262;-84
2023/09/12 01:16:49;;;;;;;13.15;11.38;;;15.50;99.90;;;;;;10190570;29;20647;-83
2023/09/12 01:22:13;;;;;;;14.98;12.10;;;15.60;99.90;;;;;;10191199;29;20333;-84
2023/09/12 01:27:30;;;;;;;16.35;13.55;;;15.50;99.90;;;;;;10190386;29;20337;-84
2023/09/12 01:32:34;;;;;;;18.15;12.02;;;15.60;99.90;;;;;;10191029;29;20331;-84
2023/09/12 01:37:37;;;;;;;12.13;10.25;;;15.50;99.90;;;;;;10175172;29;20246;-84
2023/09/12 01:42:48;;;;;;;16.83;11.43;;;15.40;99.90;;;;;;10190448;29;20286;-84
2023/09/12 01:47:51;;;;;;;16.08;10.77;;;15.40;99.90;;;;;;10207725;29;20302;-84
2023/09/12 01:52:54;;;;;;;12.90;10.57;;;15.20;99.90;;;;;;10207627;29;20640;-84
2023/09/12 01:57:57;;;;;;;12.07;10.88;;;15.20;99.90;;;;;;10201113;29;20266;-84
2023/09/12 02:03:01;;;;;;;15.52;10.63;;;15.30;99.90;;;;;;10157896;29;20302;-84
2023/09/12 02:08:04;;;;;;;11.50;10.30;;;15.20;99.90;;;;;;10189710;29;20206;-84
2023/09/12 02:13:07;;;;;;;16.95;12.32;;;15.10;99.90;;;;;;10206934;29;20262;-84
2023/09/12 02:18:09;;;;;;;18.17;12.27;;;15.00;99.90;;;;;;10189788;29;20235;-84
2023/09/12 02:23:12;;;;;;;13.52;11.68;;;15.00;99.90;;;;;;10207215;29;20688;-84
2023/09/12 02:28:15;;;;;;;13.50;11.38;;;14.90;99.90;;;;;;10189539;29;20274;-84
2023/09/12 02:33:17;;;;;;;18.25;11.68;;;15.10;99.90;;;;;;10188829;29;20681;-84
2023/09/12 02:38:20;;;;;;;18.50;11.85;;;14.90;99.90;;;;;;10188375;29;20685;-84
2023/09/12 02:43:23;;;;;;;16.35;10.98;;;14.80;99.90;;;;;;10206216;29;20242;-85
2023/09/12 02:48:25;;;;;;;14.00;10.20;;;14.80;99.90;;;;;;10205615;29;20329;-84
2023/09/12 02:53:28;;;;;;;14.07;8.65;;;14.80;99.90;;;;;;10205822;29;20723;-84
2023/09/12 02:58:30;;;;;;;16.08;10.85;;;14.80;99.90;;;;;;10208933;29;20654;-84
2023/09/12 03:03:34;;;;;;;16.05;11.13;;;14.80;99.90;;;;;;10195487;29;20213;-84
2023/09/12 03:08:37;;;;;;;15.30;11.40;;;14.90;99.90;;;;;;10213004;29;20655;-84
2023/09/12 03:13:41;;;;;;;13.65;10.73;;;14.90;99.90;;;;;;10194990;29;20266;-84
2023/09/12 03:18:44;;;;;;;15.38;10.88;;;14.60;99.90;;;;;;10180077;29;20239;-84
2023/09/12 03:23:47;;;;;;;10.73;9.63;;;14.40;99.90;;;;;;10194690;29;20210;-85
2023/09/12 03:28:51;;;;;;;13.88;10.95;;;14.50;99.90;;;;;;10212009;29;20243;-84
2023/09/12 03:33:53;;;;;;;12.73;10.48;;;14.40;99.90;;;;;;10195141;29;20321;-84
2023/09/12 03:38:56;;;;;;;15.15;10.45;;;14.50;99.90;;;;;;10179335;29;20294;-84
2023/09/12 03:43:59;;;;;;;26.00;12.00;;;14.40;99.90;;;;;;10194642;29;20247;-84
2023/09/12 03:49:01;;;;;;;14.40;11.18;;;14.30;99.90;;;;;;10212064;29;20309;-85
2023/09/12 03:54:04;;;;;;;15.20;11.32;;;14.20;99.90;;;;;;10211231;29;20294;-84
2023/09/12 03:59:07;;;;;;;14.00;10.85;;;14.20;99.90;;;;;;10194363;29;20215;-84
2023/09/12 04:04:10;;;;;;;15.52;10.48;;;14.20;99.90;;;;;;10210860;29;20388;-84
2023/09/12 04:09:12;;;;;;;12.15;9.60;;;14.30;99.90;;;;;;10210848;29;20313;-84
2023/09/12 04:14:15;;;;;;;10.20;9.25;;;14.30;99.90;;;;;;10208388;29;20267;-84
2023/09/12 04:19:18;;;;;;;12.88;10.45;;;14.30;99.90;;;;;;10193713;29;20242;-84
2023/09/12 04:24:21;;;;;;;14.93;10.43;;;14.10;99.90;;;;;;10193469;29;20700;-85
2023/09/12 04:29:23;;;;;;;21.10;11.43;;;14.20;99.90;;;;;;10193116;29;20297;-85
2023/09/12 04:34:27;;;;;;;18.30;10.73;;;14.20;99.90;;;;;;10192218;29;20266;-84
2023/09/12 04:39:29;;;;;;;16.33;9.95;;;14.10;99.90;;;;;;10192914;29;20242;-85
2023/09/12 04:44:36;;;;;;;28.70;11.75;;;14.20;99.90;;;;;;10191786;29;20766;-85
2023/09/12 04:49:40;;;;;;;27.75;11.88;;;14.20;99.90;;;;;;10192617;29;20246;-84
2023/09/12 04:54:42;;;;;;;16.33;9.80;;;14.20;99.90;;;;;;10191397;29;20329;-85
2023/09/12 04:59:46;;;;;;;25.10;11.35;;;14.30;99.90;;;;;;10192349;29;20238;-85
2023/09/12 05:04:48;;;;;;;22.50;11.57;;;14.30;99.90;;;;;;10193260;29;20242;-85
2023/09/12 05:09:51;;;;;;;21.98;11.43;;;14.50;99.90;;;;;;10191009;29;20251;-84
2023/09/12 05:14:54;;;;;;;32.78;11.98;;;14.40;99.90;;;;;;10190595;29;20302;-84
2023/09/12 05:19:56;;;;;;;22.50;11.43;;;14.60;99.90;;;;;;10190981;29;20627;-85
2023/09/12 05:24:59;;;;;;;24.02;11.73;;;14.70;99.90;;;;;;10190179;29;20305;-85
2023/09/12 05:30:02;;;;;;;20.35;11.30;;;14.80;99.90;;;;;;10191033;29;20278;-84
2023/09/12 05:35:05;;;;;;;18.45;10.18;;;15.00;99.90;;;;;;10200100;29;20321;-85
2023/09/12 05:40:23;;;;;;;17.88;10.65;;;15.10;99.90;;;;;;10167507;29;20575;-84
2023/09/12 05:45:29;;;;;;;16.40;10.32;;;15.60;99.90;;;;;;10201864;29;20250;-84
2023/09/12 05:50:32;;;;;;;18.38;11.15;;;15.80;99.90;;;;;;10152252;29;20848;-84
2023/09/12 05:55:35;;;;;;;14.65;10.57;;;16.10;99.90;;;;;;10186963;29;20285;-84
2023/09/12 06:00:38;;;;;;;16.80;11.70;;;16.40;99.90;;;;;;10186103;29;20242;-83
2023/09/12 06:05:40;;;;;;;25.73;12.73;;;16.70;99.90;;;;;;10205521;29;20242;-83
2023/09/12 06:10:43;;;;;;;20.40;13.52;;;16.90;99.90;;;;;;10203693;29;20303;-85
2023/09/12 06:15:45;;;;;;;22.17;14.95;;;17.20;99.90;;;;;;10189472;29;20683;-85
2023/09/12 06:20:49;;;;;;;30.80;16.80;;;17.50;99.90;;;;;;10189670;29;20693;-85
2023/09/12 06:25:52;;;;;;;39.65;16.88;;;17.70;99.90;;;;;;10201853;29;20302;-85
2023/09/12 06:30:54;;;;;;;15.82;9.95;;;18.00;99.90;;;;;;10169100;29;20243;-87
2023/09/12 06:35:57;;;;;;;19.98;12.65;;;18.30;99.90;;;;;;10211144;29;20286;-86
2023/09/12 06:41:00;;;;;;;16.83;10.07;;;18.50;99.90;;;;;;10196442;29;20242;-87
2023/09/12 06:46:02;;;;;;;15.88;12.40;;;18.80;99.90;;;;;;10212669;29;20747;-87
2023/09/12 06:51:06;;;;;;;9.95;7.88;;;19.10;99.90;;;;;;10213430;29;20242;-87
2023/09/12 06:56:16;;;;;;;13.52;9.45;;;19.40;99.90;;;;;;10212641;29;20646;-87
2023/09/12 07:01:18;;;;;;;19.98;14.68;;;19.60;99.90;;;;;;10210290;29;20234;-87
2023/09/12 07:06:21;;;;;;;15.38;9.48;;;19.70;99.90;;;;;;10210849;29;20262;-86
2023/09/12 07:11:24;;;;;;;11.95;7.00;;;20.00;99.90;;;;;;10213110;29;20696;-87
2023/09/12 07:16:26;;;;;;;34.08;21.00;;;20.20;99.90;;;;;;10195582;29;20317;-87
2023/09/12 07:21:29;;;;;;;15.88;11.05;;;20.40;99.90;;;;;;10194927;29;20234;-87
2023/09/12 07:26:32;;;;;;;32.53;21.35;;;20.60;99.90;;;;;;10210136;29;20871;-87
2023/09/12 07:31:34;;;;;;;24.33;18.33;;;20.70;99.90;;;;;;10210858;29;20298;-85
2023/09/12 07:36:37;;;;;;;11.25;9.13;;;21.00;99.90;;;;;;10194421;29;20262;-85
2023/09/12 07:41:40;;;;;;;15.55;12.35;;;21.20;99.90;;;;;;10211221;29;20775;-85
2023/09/12 07:46:44;;;;;;;18.73;13.85;;;21.50;99.90;;;;;;10243354;29;20297;-86
2023/09/12 07:51:47;;;;;;;17.10;13.90;;;21.70;99.90;;;;;;10199484;29;20699;-86
2023/09/12 07:56:49;;;;;;;24.88;16.92;;;21.90;99.90;;;;;;10193694;29;20325;-86
2023/09/12 08:01:52;;;;;;;10.25;8.45;;;22.20;99.90;;;;;;10192858;29;20707;-86
2023/09/12 08:06:54;;;;;;;11.07;8.57;;;22.40;99.90;;;;;;10176855;29;20293;-86
2023/09/12 08:12:00;;;;;;;15.95;11.95;;;22.70;99.90;;;;;;10210469;29;20247;-86
2023/09/12 08:17:03;;;;;;;7.80;6.97;;;22.90;99.90;;;;;;10207664;29;20247;-87
2023/09/12 08:22:07;;;;;;;9.75;7.88;;;23.10;99.90;;;;;;10213480;29;20238;-87
2023/09/12 08:27:09;;;;;;;16.48;12.50;;;23.30;99.90;;;;;;10246097;29;20238;-86
2023/09/12 08:32:12;;;;;;;7.15;6.45;;;23.50;99.90;;;;;;10233454;29;20235;-86
2023/09/12 08:37:15;;;;;;;19.40;14.18;;;23.70;99.90;;;;;;10207752;29;20283;-87
2023/09/12 08:42:18;;;;;;;19.00;13.15;;;23.90;99.90;;;;;;10209498;29;20310;-87
2023/09/12 08:47:24;;;;;;;9.13;8.18;;;24.00;99.90;;;;;;10209577;29;20298;-86
2023/09/12 08:52:27;;;;;;;12.60;11.23;;;24.20;99.90;;;;;;10208557;29;20262;-87
2023/09/12 08:57:33;;;;;;;10.73;9.02;;;24.40;99.90;;;;;;10206832;29;20717;-86
2023/09/12 09:02:36;;;;;;;9.90;8.60;;;24.50;99.90;;;;;;10176190;29;20239;-86
2023/09/12 09:07:41;;;;;;;22.23;17.65;;;24.70;99.90;;;;;;10222355;29;20270;-87
2023/09/12 09:12:45;;;;;;;14.35;10.77;;;24.80;99.90;;;;;;10230747;29;20258;-87
2023/09/12 09:17:50;;;;;;;15.15;8.93;;;25.00;99.90;;;;;;10224902;29;20234;-86
2023/09/12 09:23:00;;;;;;;7.35;6.65;;;25.10;99.90;;;;;;10232576;29;20303;-87
2023/09/12 09:28:04;;;;;;;11.50;9.90;;;25.20;99.90;;;;;;10206829;29;20254;-87
2023/09/12 09:33:08;;;;;;;13.38;11.35;;;25.30;99.90;;;;;;10191891;29;20263;-87
2023/09/12 09:38:16;;;;;;;13.60;8.80;;;25.40;99.90;;;;;;10190682;29;21017;-86
2023/09/12 09:43:22;;;;;;;13.43;9.32;;;25.50;99.90;;;;;;10188634;29;20302;-86
2023/09/12 09:48:28;;;;;;;15.00;11.00;;;25.60;99.90;;;;;;10190357;29;20344;-86
2023/09/12 09:53:34;;;;;;;11.48;9.38;;;25.70;99.90;;;;;;10207421;29;20266;-87
2023/09/12 09:58:52;;;;;;;7.32;6.40;;;25.80;99.90;;;;;;10205551;29;20331;-86
2023/09/12 10:03:59;;;;;;;17.08;10.77;;;25.90;99.90;;;;;;10207239;29;20657;-87
2023/09/12 10:09:09;;;;;;;7.95;7.15;;;25.90;99.90;;;;;;10207362;29;20246;-87
2023/09/12 10:14:15;;;;;;;7.57;6.85;;;25.90;99.90;;;;;;10210060;29;20346;-87
2023/09/12 10:19:59;;;;;;;10.50;8.88;;;26.00;99.90;;;;;;10241378;29;20282;-85
2023/09/12 10:25:02;;;;;;;6.75;6.15;;;26.10;99.90;;;;;;10195338;28;20280;-85
2023/09/12 10:30:08;;;;;;;9.90;8.10;;;26.20;99.90;;;;;;10241126;29;20233;-85
2023/09/12 10:35:11;;;;;;;12.27;9.70;;;26.20;99.90;;;;;;10227090;29;20668;-85
2023/09/12 10:40:16;;;;;;;9.98;9.02;;;26.30;99.90;;;;;;10240797;29;20281;-85
2023/09/12 10:45:20;;;;;;;8.25;7.00;;;26.30;99.90;;;;;;10198761;29;20570;-85
2023/09/12 10:50:22;;;;;;;12.10;8.50;;;26.30;99.90;;;;;;10198146;29;20278;-83
2023/09/12 10:55:26;;;;;;;15.10;8.80;;;26.30;99.90;;;;;;10227644;28;20309;-85
2023/09/12 11:00:34;;;;;;;10.50;9.50;;;26.30;99.90;;;;;;10223406;29;20230;-85
2023/09/12 11:05:50;;;;;;;11.02;10.00;;;26.30;99.90;;;;;;10227201;29;20223;-85
2023/09/12 11:11:22;;;;;;;12.15;10.23;;;26.30;99.90;;;;;;10193657;29;20243;-86
2023/09/12 11:16:24;;;;;;;13.57;9.10;;;26.40;99.90;;;;;;10183778;29;20231;-86
2023/09/12 11:21:33;;;;;;;11.85;9.38;;;26.50;99.90;;;;;;10230473;29;20605;-87
2023/09/12 11:26:53;;;;;;;12.32;10.38;;;26.50;99.90;;;;;;10267717;29;20219;-87
2023/09/12 11:31:59;;;;;;;10.45;9.07;;;26.50;99.90;;;;;;10252609;29;20202;-86
2023/09/12 11:37:03;;;;;;;10.48;8.43;;;26.50;99.90;;;;;;10243466;29;20242;-86
2023/09/12 11:42:12;;;;;;;12.80;10.85;;;26.60;99.90;;;;;;10262973;29;20206;-86
2023/09/12 11:47:15;;;;;;;11.45;9.93;;;26.60;99.90;;;;;;10227016;29;20744;-85
2023/09/12 11:52:19;;;;;;;10.45;9.38;;;26.60;99.90;;;;;;10294523;28;20195;-86
2023/09/12 11:57:22;;;;;;;11.88;10.13;;;26.60;99.90;;;;;;10288513;28;20238;-86
2023/09/12 12:02:25;;;;;;;10.30;9.30;;;26.70;99.90;;;;;;10293937;28;20214;-86
2023/09/12 12:07:27;;;;;;;14.25;9.45;;;26.60;99.90;;;;;;10286364;28;20191;-86
2023/09/12 12:12:30;;;;;;;10.70;9.60;;;26.60;99.90;;;;;;10246596;28;20195;-86
2023/09/12 12:17:32;;;;;;;13.13;11.23;;;26.70;99.90;;;;;;10247899;28;20242;-86
2023/09/12 12:22:38;;;;;;;11.23;10.10;;;26.70;99.90;;;;;;10248309;28;20215;-86
2023/09/12 12:27:42;;;;;;;13.07;10.05;;;26.70;99.90;;;;;;10247867;28;20227;-86
2023/09/12 12:32:52;;;;;;;7.93;7.10;;;26.70;99.90;;;;;;10264412;28;20211;-86
2023/09/12 12:37:58;;;;;;;12.63;11.02;;;26.70;99.90;;;;;;10247574;28;20243;-86
2023/09/12 12:43:22;;;;;;;10.63;9.63;;;26.90;99.90;;;;;;10247914;28;20199;-86
2023/09/12 12:48:38;;;;;;;10.90;9.13;;;26.90;99.90;;;;;;10247258;28;20198;-86
2023/09/12 12:53:46;;;;;;;9.52;8.55;;;26.70;99.90;;;;;;10262750;28;20227;-85
2023/09/12 12:58:57;;;;;;;11.18;9.52;;;26.60;99.90;;;;;;10246748;28;20413;-86
2023/09/12 13:04:00;;;;;;;10.60;8.13;;;26.70;99.90;;;;;;10225812;28;20240;-86
2023/09/12 13:09:05;;;;;;;11.07;9.52;;;26.70;99.90;;;;;;10260933;28;20219;-86
2023/09/12 13:14:11;;;;;;;13.27;9.77;;;26.80;99.90;;;;;;10224589;28;20224;-86
2023/09/12 13:19:14;;;;;;;10.50;9.40;;;26.90;99.90;;;;;;10246416;28;20309;-85
2023/09/12 13:24:17;;;;;;;16.13;9.55;;;27.10;99.90;;;;;;10248832;28;20228;-84
2023/09/12 13:29:19;;;;;;;12.55;9.95;;;27.10;99.90;;;;;;10263161;28;20211;-85
2023/09/12 13:34:22;;;;;;;12.60;10.23;;;27.40;99.90;;;;;;10248543;28;20211;-85
2023/09/12 13:39:25;;;;;;;14.20;10.02;;;27.50;99.90;;;;;;10248334;28;20203;-85
2023/09/12 13:44:28;;;;;;;11.15;9.13;;;27.40;99.90;;;;;;10264041;28;20235;-85
2023/09/12 13:49:30;;;;;;;12.77;9.32;;;27.40;99.90;;;;;;10247766;28;20203;-86
2023/09/12 13:54:33;;;;;;;13.50;8.40;;;27.40;99.90;;;;;;10256942;28;20214;-85
2023/09/12 13:59:35;;;;;;;12.32;11.02;;;27.30;99.90;;;;;;10263559;28;20241;-85
2023/09/12 14:04:47;;;;;;;12.05;10.10;;;27.20;99.90;;;;;;10249800;28;20231;-84
2023/09/12 14:10:02;;;;;;;9.85;8.68;;;27.10;99.90;;;;;;10260068;28;20218;-84
2023/09/12 14:15:06;;;;;;;14.57;10.02;;;27.20;99.90;;;;;;10263456;28;20219;-84
2023/09/12 14:20:15;;;;;;;13.43;8.68;;;27.30;99.90;;;;;;10260592;29;20223;-84
2023/09/12 14:25:18;;;;;;;10.20;9.20;;;27.30;99.90;;;;;;10260831;28;20203;-84
2023/09/12 14:30:22;;;;;;;13.35;10.60;;;27.30;99.90;;;;;;10243706;29;20199;-84
2023/09/12 14:35:25;;;;;;;13.05;10.93;;;27.20;99.90;;;;;;10242235;28;20222;-85
2023/09/12 14:40:27;;;;;;;13.40;10.73;;;27.10;99.90;;;;;;10263321;29;20187;-85
2023/09/12 14:45:30;;;;;;;10.27;9.27;;;26.90;99.90;;;;;;10262917;28;20231;-85
2023/09/12 14:50:33;;;;;;;11.75;9.13;;;26.80;99.90;;;;;;10245850;28;20191;-84
2023/09/12 14:55:45;;;;;;;11.77;10.57;;;26.80;99.90;;;;;;10267197;28;20222;-84
2023/09/12 15:00:48;;;;;;;10.90;8.95;;;26.80;99.90;;;;;;10237700;28;20238;-85
2023/09/12 15:05:50;;;;;;;11.05;9.90;;;26.70;99.90;;;;;;10232872;29;20230;-84
2023/09/12 15:10:53;;;;;;;10.52;9.45;;;26.70;99.90;;;;;;10213276;29;20294;-85
2023/09/12 15:15:55;;;;;;;10.95;9.65;;;26.60;99.90;;;;;;10230004;29;20230;-85
2023/09/12 15:20:58;;;;;;;10.02;9.05;;;26.60;99.90;;;;;;10228581;29;20242;-85
2023/09/12 15:26:01;;;;;;;9.77;8.77;;;26.50;99.90;;;;;;10213693;29;20223;-85
2023/09/12 15:31:04;;;;;;;9.65;8.75;;;26.30;99.90;;;;;;10232507;29;20206;-85
2023/09/12 15:36:07;;;;;;;9.95;8.95;;;26.20;99.90;;;;;;10215663;29;20235;-85
2023/09/12 15:41:09;;;;;;;14.18;10.35;;;26.10;99.90;;;;;;10228494;29;20215;-85
2023/09/12 15:46:12;;;;;;;9.60;8.70;;;26.00;99.90;;;;;;10229865;29;20238;-85
2023/09/12 15:51:33;;;;;;;18.17;10.45;;;25.80;99.90;;;;;;10230120;29;20211;-85
2023/09/12 15:56:36;;;;;;;19.85;10.38;;;25.70;99.90;;;;;;10206621;29;20235;-84
2023/09/12 16:01:39;;;;;;;20.55;11.05;;;25.40;99.90;;;;;;10224501;29;20210;-84
2023/09/12 16:06:42;;;;;;;17.52;10.05;;;25.10;99.90;;;;;;10208733;29;20207;-84
2023/09/12 16:11:45;;;;;;;18.05;9.32;;;24.80;99.90;;;;;;10235582;29;20290;-85
2023/09/12 16:16:47;;;;;;;18.55;10.23;;;24.60;99.90;;;;;;10210396;29;20218;-85
2023/09/12 16:21:51;;;;;;;13.88;10.48;;;24.50;99.90;;;;;;10222001;29;20265;-85
2023/09/12 16:26:54;;;;;;;18.50;10.80;;;24.30;99.90;;;;;;10245765;29;20243;-85
2023/09/12 16:31:57;;;;;;;15.68;9.88;;;24.10;99.90;;;;;;10234377;29;20782;-85
2023/09/12 16:37:00;;;;;;;17.13;10.45;;;23.90;99.90;;;;;;10259240;29;20226;-85
2023/09/12 16:42:03;;;;;;;24.50;11.73;;;23.70;99.90;;;;;;10237799;29;20294;-84
2023/09/12 16:47:06;;;;;;;36.13;12.73;;;23.40;99.90;;;;;;10237756;29;20246;-85
2023/09/12 16:52:09;;;;;;;42.60;13.45;;;23.20;99.90;;;;;;10192322;29;21061;-84
2023/09/12 16:57:14;;;;;;;42.95;16.95;;;23.00;99.90;;;;;;10191578;29;20317;-85
2023/09/12 17:02:16;;;;;;;34.47;13.27;;;22.60;99.90;;;;;;9852170;29;10000131;-84
2023/09/12 17:07:19;;;;;;;25.30;13.73;;;22.30;99.90;;;;;;10186699;29;20332;-85
2023/09/12 17:12:21;;;;;;;26.80;12.80;;;22.10;99.90;;;;;;10190429;29;20721;-86
2023/09/12 17:17:24;;;;;;;19.95;12.02;;;21.90;99.90;;;;;;10205284;29;20262;-87
2023/09/12 17:22:27;;;;;;;24.58;11.70;;;21.70;99.90;;;;;;10206374;29;20325;-86
2023/09/12 17:27:29;;;;;;;29.50;12.00;;;21.70;99.90;;;;;;10206468;29;20297;-86
2023/09/12 17:32:32;;;;;;;31.25;15.05;;;21.60;99.90;;;;;;10205817;29;20234;-86
2023/09/12 17:37:35;;;;;;;25.90;12.65;;;21.40;99.90;;;;;;10206714;29;20267;-87
2023/09/12 17:42:37;;;;;;;17.48;10.52;;;21.30;99.90;;;;;;10189609;29;20675;-85
2023/09/12 17:47:40;;;;;;;25.60;12.50;;;21.10;99.90;;;;;;10187924;29;20243;-86
2023/09/12 17:52:43;;;;;;;23.33;12.30;;;20.80;99.90;;;;;;10167921;29;20270;-86
2023/09/12 17:57:45;;;;;;;31.25;13.48;;;20.60;99.90;;;;;;10151511;29;20301;-85
2023/09/12 18:02:50;;;;;;;34.03;13.75;;;20.60;99.90;;;;;;10175934;29;20642;-86
2023/09/12 18:07:55;;;;;;;32.75;13.75;;;20.40;99.90;;;;;;10210405;29;20330;-85
2023/09/12 18:12:58;;;;;;;31.63;13.90;;;20.40;99.90;;;;;;10197451;29;20250;-86
2023/09/12 18:18:00;;;;;;;33.00;13.55;;;20.30;99.90;;;;;;10206933;29;20305;-86
2023/09/12 18:23:03;;;;;;;28.92;12.52;;;20.20;99.90;;;;;;10172809;29;20287;-86
2023/09/12 18:28:06;;;;;;;27.83;13.63;;;20.10;99.90;;;;;;10190153;29;20759;-86
2023/09/12 18:33:09;;;;;;;32.28;15.55;;;20.00;99.90;;;;;;10222373;29;20246;-85
2023/09/12 18:38:11;;;;;;;31.90;13.43;;;20.00;99.90;;;;;;10196206;29;20266;-86
2023/09/12 18:43:14;;;;;;;22.40;12.52;;;19.80;99.90;;;;;;10213660;29;21739;-86
2023/09/12 18:48:19;;;;;;;33.92;13.32;;;19.70;99.90;;;;;;10214341;29;20243;-86
2023/09/12 18:53:21;;;;;;;30.98;14.25;;;19.70;99.90;;;;;;10195344;29;20246;-87
2023/09/12 18:58:25;;;;;;;32.58;13.45;;;19.50;99.90;;;;;;10193444;29;20321;-86
2023/09/12 19:03:28;;;;;;;22.85;13.30;;;19.50;99.90;;;;;;10196208;29;20755;-86
2023/09/12 19:08:31;;;;;;;34.97;14.15;;;19.40;99.90;;;;;;10193775;29;20250;-86
2023/09/12 19:13:33;;;;;;;30.58;13.40;;;19.40;99.90;;;;;;10199595;29;20235;-86
2023/09/12 19:18:38;;;;;;;39.08;13.77;;;19.30;99.90;;;;;;10210866;29;20266;-87
2023/09/12 19:23:41;;;;;;;52.03;15.13;;;19.20;99.90;;;;;;10198166;29;20293;-85
2023/09/12 19:28:44;;;;;;;32.28;15.50;;;19.10;99.90;;;;;;10209885;29;21101;-85
2023/09/12 19:33:47;;;;;;;20.55;11.27;;;19.10;99.90;;;;;;10225830;29;20328;-87
2023/09/12 19:38:50;;;;;;;22.73;11.38;;;19.10;99.90;;;;;;10241366;28;20305;-86
2023/09/12 19:43:52;;;;;;;36.22;14.52;;;19.20;99.90;;;;;;10205320;28;20238;-88
2023/09/12 19:48:55;;;;;;;29.45;13.93;;;19.10;99.90;;;;;;10205456;29;20306;-87
2023/09/12 19:53:58;;;;;;;33.53;13.50;;;19.00;99.90;;;;;;10194616;29;20245;-87
2023/09/12 19:59:00;;;;;;;27.58;13.93;;;18.90;99.90;;;;;;10210508;29;20283;-87
2023/09/12 20:04:03;;;;;;;31.35;14.13;;;19.00;99.90;;;;;;10193645;29;20235;-88
2023/09/12 20:09:10;;;;;;;33.70;14.70;;;19.00;99.90;;;;;;10220606;29;20244;-88
2023/09/12 20:14:13;;;;;;;22.13;13.23;;;18.80;99.90;;;;;;10213135;29;20238;-87
2023/09/12 20:19:16;;;;;;;29.17;13.40;;;18.90;99.90;;;;;;10220635;29;20260;-87
2023/09/12 20:24:19;;;;;;;29.13;14.40;;;18.80;99.90;;;;;;10212000;29;20251;-87
2023/09/12 20:29:21;;;;;;;34.70;15.43;;;18.70;99.90;;;;;;10193782;29;20246;-87
2023/09/12 20:34:24;;;;;;;27.10;15.90;;;18.70;99.90;;;;;;10224829;29;20206;-87
2023/09/12 20:39:28;;;;;;;20.80;12.40;;;18.60;99.90;;;;;;10211171;29;20289;-88
2023/09/12 20:44:31;;;;;;;19.88;13.60;;;18.60;99.90;;;;;;10239975;29;20688;-88
2023/09/12 20:49:35;;;;;;;26.08;15.02;;;18.70;99.90;;;;;;10232489;28;20234;-88
2023/09/12 20:54:39;;;;;;;20.73;13.70;;;18.60;99.90;;;;;;10216398;28;20273;-87
2023/09/12 20:59:42;;;;;;;18.85;12.30;;;18.50;99.90;;;;;;10241886;29;20258;-87
2023/09/12 21:04:45;;;;;;;17.20;12.18;;;18.50;99.90;;;;;;10240974;29;20293;-88
2023/09/12 21:09:47;;;;;;;24.38;13.50;;;18.50;99.90;;;;;;10247800;29;20242;-87
2023/09/12 21:14:50;;;;;;;21.92;13.27;;;18.50;99.90;;;;;;10241180;29;20278;-87
2023/09/12 21:19:53;;;;;;;10.40;9.32;;;18.40;99.90;;;;;;10214342;29;20270;-87
2023/09/12 21:24:55;;;;;;;29.58;14.73;;;18.40;99.90;;;;;;10207888;29;20356;-88
2023/09/12 21:29:58;;;;;;;21.98;12.75;;;18.40;99.90;;;;;;10205118;29;20643;-88
2023/09/12 21:35:18;;;;;;;19.85;14.25;;;18.40;99.90;;;;;;10208343;29;20716;-87
2023/09/12 21:40:21;;;;;;;23.70;13.32;;;18.30;99.90;;;;;;10192360;29;20282;-88
2023/09/12 21:45:24;;;;;;;18.20;12.48;;;18.40;99.90;;;;;;10207872;29;20250;-87
2023/09/12 21:50:27;;;;;;;25.77;14.73;;;18.50;99.90;;;;;;10189687;29;20719;-87
2023/09/12 21:55:30;;;;;;;28.08;15.52;;;18.60;99.90;;;;;;10207120;29;20286;-87
2023/09/12 22:00:34;;;;;;;29.83;14.60;;;18.50;99.90;;;;;;10206206;29;20234;-88
2023/09/12 22:05:37;;;;;;;16.30;11.35;;;18.40;99.90;;;;;;10190062;29;20238;-87
2023/09/12 22:10:40;;;;;;;21.55;13.38;;;18.50;99.90;;;;;;10203222;29;20247;-87
2023/09/12 22:15:43;;;;;;;20.50;13.80;;;18.40;99.90;;;;;;10200606;29;20262;-87
2023/09/12 22:20:46;;;;;;;25.75;15.73;;;18.40;99.90;;;;;;10207122;29;20298;-87
2023/09/12 22:25:48;;;;;;;23.92;12.82;;;18.30;99.90;;;;;;10205358;29;20653;-87
2023/09/12 22:30:51;;;;;;;24.80;15.27;;;18.40;99.90;;;;;;10188763;29;20247;-88
2023/09/12 22:35:54;;;;;;;23.05;13.77;;;18.50;99.90;;;;;;10206202;29;20270;-88
2023/09/12 22:41:14;;;;;;;21.30;13.80;;;18.30;99.90;;;;;;10189795;29;20246;-87
2023/09/12 22:46:16;;;;;;;22.48;13.20;;;18.30;99.90;;;;;;10206848;29;20238;-88
2023/09/12 22:51:19;;;;;;;25.33;15.73;;;18.30;99.90;;;;;;10217934;29;20688;-87
2023/09/12 22:56:22;;;;;;;29.00;15.60;;;18.10;99.90;;;;;;10234689;28;20265;-88
2023/09/12 23:01:24;;;;;;;20.25;12.82;;;18.00;99.90;;;;;;10208222;29;20285;-87
2023/09/12 23:06:27;;;;;;;26.10;14.85;;;18.00;99.90;;;;;;10246630;29;20290;-87
2023/09/12 23:11:30;;;;;;;25.80;15.05;;;18.00;99.90;;;;;;10223158;29;20788;-87
2023/09/12 23:16:34;;;;;;;14.82;12.07;;;17.90;99.90;;;;;;10232740;29;20277;-88
2023/09/12 23:21:37;;;;;;;20.15;13.30;;;17.80;99.90;;;;;;10228842;29;20675;-88
2023/09/12 23:26:40;;;;;;;19.30;14.38;;;17.80;99.90;;;;;;10215086;29;20270;-88
2023/09/12 23:31:42;;;;;;;20.70;15.00;;;17.70;99.90;;;;;;10195859;29;20239;-88
2023/09/12 23:36:45;;;;;;;25.08;16.38;;;17.60;99.90;;;;;;10195754;29;20262;-88
2023/09/12 23:41:49;;;;;;;23.35;15.80;;;17.60;99.90;;;;;;10212938;29;20238;-88
2023/09/12 23:46:52;;;;;;;23.92;17.40;;;17.60;99.90;;;;;;10211073;29;20250;-88
2023/09/12 23:51:54;;;;;;;26.38;16.67;;;17.50;99.90;;;;;;10212523;29;20238;-88
2023/09/12 23:56:57;;;;;;;19.70;15.50;;;17.40;99.90;;;;;;10193858;29;20266;-88
